Capable — ZDKT8 — position and weather

sailwx.info

Track history (hours):
 
Tides and Currents Weather Stations Pressure Air Temp Water Temp Dewpoint Dewpoint Depression Visibility Wind Speed Wind Dir Waves Ship Positions

Capable

Last reported at 2014-Oct-30 23:26 UTC. Time now 2014-Oct-31 09:18 UTC.
Position N 36°05' W 005°22'.

Length 38 m; draft 4.5 m.

Type: Tug. MMSI: 236111806.

Date/timePositionNaut miles runAvg speedWind from/ knotsBaromVisibWave heightAir tempDewpointWater temp
2014-Oct-30 23:26N 36°05' W 005°22'8 9.3
2014-Oct-30 22:33N 35°57' W 005°20'3 3.4
2014-Oct-30 21:33N 35°53' W 005°19'0 0.3
2014-Oct-30 20:34N 35°54' W 005°19'8 1.6
2014-Oct-30 15:22N 36°00' W 005°12'9 0.3
2014-Oct-29 09:33N 36°06' W 005°21'12 1.8
2014-Oct-29 02:33N 35°54' W 005°19'0 0.3
2014-Oct-29 01:31N 35°54' W 005°19'1 0.6
2014-Oct-29 00:32N 35°54' W 005°18'1 1.4
2014-Oct-28 23:33N 35°55' W 005°19'  
2014-Oct-22 07:15N 36°09' W 005°22'0 0.0
2014-Oct-22 04:21N 36°09' W 005°22'  
Track history (hours):
 
Tides and Currents Weather Stations Pressure Air Temp Water Temp Dewpoint Dewpoint Depression Visibility Wind Speed Wind Dir Waves Ship Positions

Capable

Last reported at 2014-Oct-30 23:26 UTC. Time now 2014-Oct-31 09:18 UTC.
Position N 36°05' W 005°22'.

Length 38 m; draft 4.5 m.

Type: Tug. MMSI: 236111806.

Date/timePositionNaut miles runAvg speedWind from/ knotsBaromVisibWave heightAir tempDewpointWater temp
2014-Oct-30 23:26N 36°05' W 005°22'8 9.3
2014-Oct-30 22:33N 35°57' W 005°20'3 3.4
2014-Oct-30 21:33N 35°53' W 005°19'0 0.3
2014-Oct-30 20:34N 35°54' W 005°19'8 1.6
2014-Oct-30 15:22N 36°00' W 005°12'9 0.3
2014-Oct-29 09:33N 36°06' W 005°21'12 1.8
2014-Oct-29 02:33N 35°54' W 005°19'0 0.3
2014-Oct-29 01:31N 35°54' W 005°19'1 0.6
2014-Oct-29 00:32N 35°54' W 005°18'1 1.4
2014-Oct-28 23:33N 35°55' W 005°19'  
2014-Oct-22 07:15N 36°09' W 005°22'0 0.0
2014-Oct-22 04:21N 36°09' W 005°22'  

Dump ship's entire track history